createdAt,value
2023-04-27T00:01:41.352Z,13.38
2023-04-27T00:04:08.393Z,13.36
2023-04-27T00:06:35.348Z,13.33
2023-04-27T00:09:02.297Z,13.32
2023-04-27T00:11:29.244Z,13.30
2023-04-27T00:13:56.635Z,13.29
2023-04-27T00:16:23.558Z,13.27
2023-04-27T00:18:50.434Z,13.26
2023-04-27T00:21:17.356Z,13.26
2023-04-27T00:23:44.480Z,13.25
2023-04-27T00:26:11.484Z,13.24
2023-04-27T00:28:39.540Z,13.22
2023-04-27T00:31:06.435Z,13.23
2023-04-27T00:33:33.223Z,13.21
2023-04-27T00:36:01.566Z,13.18
2023-04-27T00:38:29.531Z,13.16
2023-04-27T00:41:07.141Z,13.13
2023-04-27T00:43:42.506Z,13.12
2023-04-27T00:46:10.794Z,13.13
2023-04-27T00:48:38.322Z,13.13
2023-04-27T00:51:06.216Z,13.12
2023-04-27T00:53:35.058Z,13.11
2023-04-27T00:56:01.901Z,13.11
2023-04-27T00:58:29.364Z,13.11
2023-04-27T01:00:56.427Z,13.09
2023-04-27T01:03:23.517Z,13.09
2023-04-27T01:05:50.472Z,13.07
2023-04-27T01:08:17.238Z,13.03
2023-04-27T01:10:44.104Z,13.00
2023-04-27T01:13:11.599Z,12.98
2023-04-27T01:15:39.374Z,12.96
2023-04-27T01:18:09.767Z,12.94
2023-04-27T01:20:38.414Z,12.93
2023-04-27T01:23:05.228Z,12.91
2023-04-27T01:25:32.053Z,12.89
2023-04-27T01:28:02.887Z,12.87
2023-04-27T01:30:30.277Z,12.85
2023-04-27T01:32:59.111Z,12.84
2023-04-27T01:35:28.203Z,12.81
2023-04-27T01:38:00.391Z,12.79
2023-04-27T01:40:27.361Z,12.77
2023-04-27T01:42:54.151Z,12.76
2023-04-27T01:45:21.147Z,12.74
2023-04-27T01:47:47.954Z,12.72
2023-04-27T01:50:14.813Z,12.72
2023-04-27T01:52:41.653Z,12.70
2023-04-27T01:55:08.976Z,12.69
2023-04-27T01:57:35.932Z,12.68
2023-04-27T02:00:03.776Z,12.68
2023-04-27T02:02:47.647Z,12.68
2023-04-27T02:05:16.213Z,12.66
2023-04-27T02:07:43.194Z,12.65
2023-04-27T02:10:10.902Z,12.65
2023-04-27T02:12:37.702Z,12.65
2023-04-27T02:15:05.951Z,12.63
2023-04-27T02:17:35.003Z,12.61
2023-04-27T02:20:01.967Z,12.61
2023-04-27T02:22:28.767Z,12.59
2023-04-27T02:24:55.639Z,12.59
2023-04-27T02:27:22.466Z,12.58
2023-04-27T02:29:49.692Z,12.57
2023-04-27T02:32:17.032Z,12.55
2023-04-27T02:34:44.359Z,12.55
2023-04-27T02:37:11.217Z,12.55
2023-04-27T02:39:38.246Z,12.55
2023-04-27T02:42:06.587Z,12.54
2023-04-27T02:44:33.417Z,12.53
2023-04-27T02:47:00.306Z,12.53
2023-04-27T02:49:27.167Z,12.53
2023-04-27T02:51:53.962Z,12.53
2023-04-27T02:54:20.834Z,12.54
2023-04-27T02:56:47.646Z,12.54
2023-04-27T02:59:14.771Z,12.55
2023-04-27T03:01:41.939Z,12.55
2023-04-27T03:04:09.125Z,12.54
2023-04-27T03:06:36.151Z,12.55
2023-04-27T03:09:03.717Z,12.55
2023-04-27T03:11:30.550Z,12.54
2023-04-27T03:13:57.937Z,12.54
2023-04-27T03:16:24.843Z,12.54
2023-04-27T03:18:51.663Z,12.52
2023-04-27T03:21:18.538Z,12.52
2023-04-27T03:23:49.246Z,12.50
2023-04-27T03:26:16.688Z,12.51
2023-04-27T03:28:43.547Z,12.49
2023-04-27T03:31:13.662Z,12.44
2023-04-27T03:33:41.515Z,12.45
2023-04-27T03:36:10.548Z,12.43
2023-04-27T03:38:37.682Z,12.41
2023-04-27T03:41:04.749Z,12.36
2023-04-27T03:43:31.614Z,12.33
2023-04-27T03:45:58.622Z,12.31
2023-04-27T03:48:26.144Z,12.31
2023-04-27T03:50:55.251Z,12.29
2023-04-27T03:53:22.078Z,12.28
2023-04-27T03:55:49.627Z,12.25
2023-04-27T03:58:17.466Z,12.23
2023-04-27T04:01:04.629Z,12.19
2023-04-27T04:03:31.938Z,12.18
2023-04-27T04:05:58.895Z,12.17
2023-04-27T04:08:25.945Z,12.15
2023-04-27T04:10:52.804Z,12.14
2023-04-27T04:13:19.758Z,12.12
2023-04-27T04:15:46.599Z,12.11
2023-04-27T04:18:13.467Z,12.09
2023-04-27T04:20:40.811Z,12.08
2023-04-27T04:23:07.908Z,12.07
2023-04-27T04:25:35.130Z,12.07
2023-04-27T04:28:01.878Z,12.06
2023-04-27T04:30:28.920Z,12.06
2023-04-27T04:32:55.793Z,12.05
2023-04-27T04:35:22.801Z,12.05
2023-04-27T04:37:50.391Z,12.05
2023-04-27T04:40:17.594Z,12.04
2023-04-27T04:42:44.422Z,12.03
2023-04-27T04:45:11.746Z,12.04
2023-04-27T04:47:39.617Z,12.03
2023-04-27T04:50:09.258Z,12.05
2023-04-27T04:52:37.127Z,12.04
2023-04-27T04:55:04.723Z,12.05
2023-04-27T04:57:32.923Z,12.05
2023-04-27T04:59:59.782Z,12.05
2023-04-27T05:02:27.206Z,12.04
2023-04-27T05:04:54.281Z,12.05
2023-04-27T05:07:24.642Z,12.05
2023-04-27T05:09:52.221Z,12.06
2023-04-27T05:12:19.052Z,12.05
2023-04-27T05:14:45.909Z,12.07
2023-04-27T05:17:12.671Z,12.07
2023-04-27T05:19:39.461Z,12.07
2023-04-27T05:22:06.304Z,12.09
2023-04-27T05:24:33.685Z,12.10
2023-04-27T05:27:02.318Z,12.12
2023-04-27T05:29:29.540Z,12.15
2023-04-27T05:31:56.493Z,12.16
2023-04-27T05:34:23.498Z,12.18
2023-04-27T05:36:50.425Z,12.19
2023-04-27T05:39:17.246Z,12.21
2023-04-27T05:41:44.080Z,12.23
2023-04-27T05:44:10.888Z,12.24
2023-04-27T05:46:38.693Z,12.26
2023-04-27T05:49:05.950Z,12.27
2023-04-27T05:51:33.498Z,12.29
2023-04-27T05:54:01.821Z,12.31
2023-04-27T05:56:28.798Z,12.33
2023-04-27T05:58:55.703Z,12.37
2023-04-27T06:01:23.380Z,12.41
2023-04-27T06:03:50.321Z,12.46
2023-04-27T06:06:18.210Z,12.49
2023-04-27T06:08:45.041Z,12.53
2023-04-27T06:11:12.029Z,12.55
2023-04-27T06:13:38.822Z,12.56
2023-04-27T06:16:06.035Z,12.59
2023-04-27T06:18:32.869Z,12.62
2023-04-27T06:21:03.767Z,12.64
2023-04-27T06:23:30.986Z,12.70
2023-04-27T06:25:58.763Z,12.75
2023-04-27T06:28:25.872Z,12.81
2023-04-27T06:30:53.940Z,12.87
2023-04-27T06:33:20.809Z,12.92
2023-04-27T06:35:47.703Z,13.01
2023-04-27T06:38:14.620Z,13.08
2023-04-27T06:40:41.704Z,13.13
2023-04-27T06:43:08.492Z,13.21
2023-04-27T06:45:35.937Z,13.28
2023-04-27T06:48:02.748Z,13.36
2023-04-27T06:50:30.433Z,13.45
2023-04-27T06:52:57.245Z,13.53
2023-04-27T06:55:24.225Z,13.63
2023-04-27T06:57:51.079Z,13.72
2023-04-27T07:00:18.570Z,13.83
2023-04-27T07:02:45.544Z,13.93
2023-04-27T07:05:12.698Z,14.03
2023-04-27T07:07:39.592Z,14.14
2023-04-27T07:10:07.646Z,14.25
2023-04-27T07:12:34.505Z,14.39
2023-04-27T07:15:03.604Z,14.52
2023-04-27T07:17:30.729Z,14.61
2023-04-27T07:19:57.622Z,14.74
2023-04-27T07:22:24.430Z,14.87
2023-04-27T07:24:51.432Z,14.99
2023-04-27T07:27:18.293Z,15.11
2023-04-27T07:29:45.097Z,15.23
2023-04-27T07:32:11.956Z,15.36
2023-04-27T07:34:51.963Z,15.46
2023-04-27T07:37:20.900Z,15.57
2023-04-27T07:39:50.269Z,15.69
2023-04-27T07:42:17.379Z,15.81
2023-04-27T07:44:44.464Z,15.92
2023-04-27T07:47:11.374Z,16.05
2023-04-27T07:49:38.169Z,16.16
2023-04-27T07:52:05.255Z,16.28
2023-04-27T07:54:32.102Z,16.39
2023-04-27T07:56:58.914Z,16.48
2023-04-27T07:59:29.288Z,16.54
2023-04-27T08:02:07.099Z,16.66
2023-04-27T08:04:43.430Z,16.76
2023-04-27T08:07:10.827Z,16.86
2023-04-27T08:09:37.814Z,16.96
2023-04-27T08:12:04.976Z,17.07
2023-04-27T08:14:35.309Z,17.15
2023-04-27T08:17:02.322Z,17.27
2023-04-27T08:19:29.239Z,17.37
2023-04-27T08:21:56.052Z,17.47
2023-04-27T08:24:22.885Z,17.54
2023-04-27T08:26:49.729Z,17.61
2023-04-27T08:29:26.865Z,17.69
2023-04-27T08:31:58.292Z,17.77
2023-04-27T08:34:26.084Z,17.84
2023-04-27T08:36:54.060Z,17.87
2023-04-27T08:39:21.691Z,17.91
2023-04-27T08:41:48.533Z,17.96
2023-04-27T08:44:15.985Z,18.03
2023-04-27T08:46:43.558Z,18.10
2023-04-27T08:49:10.743Z,18.16
2023-04-27T08:51:37.669Z,18.23
2023-04-27T08:54:04.681Z,18.31
2023-04-27T08:56:31.780Z,18.41
2023-04-27T08:58:59.021Z,18.50
2023-04-27T09:01:27.425Z,18.61
2023-04-27T09:04:00.304Z,18.69
2023-04-27T09:06:35.566Z,18.77
2023-04-27T09:09:03.901Z,18.90
2023-04-27T09:11:34.718Z,18.99
2023-04-27T09:14:04.712Z,19.07
2023-04-27T09:16:31.897Z,19.05
2023-04-27T09:18:59.381Z,19.21
2023-04-27T09:21:29.042Z,19.26
2023-04-27T09:23:56.683Z,19.30
2023-04-27T09:26:26.779Z,19.34
2023-04-27T09:28:57.800Z,19.42
2023-04-27T09:31:35.381Z,19.47
2023-04-27T09:34:03.674Z,19.60
2023-04-27T09:36:32.511Z,19.69
2023-04-27T09:39:04.597Z,19.76
2023-04-27T09:41:33.273Z,19.89
2023-04-27T09:44:01.633Z,19.99
2023-04-27T09:46:29.882Z,20.08
2023-04-27T09:48:57.547Z,20.19
2023-04-27T09:51:24.440Z,20.31
2023-04-27T09:53:58.761Z,20.36
2023-04-27T09:57:08.690Z,20.44
2023-04-27T09:59:53.542Z,20.52
2023-04-27T10:02:24.771Z,20.75
2023-04-27T10:05:03.597Z,20.79
2023-04-27T10:07:31.899Z,20.90
2023-04-27T10:10:03.107Z,20.94
2023-04-27T10:12:36.703Z,20.99
2023-04-27T10:15:15.756Z,21.07
2023-04-27T10:17:51.433Z,21.19
2023-04-27T10:20:37.658Z,21.32
2023-04-27T10:23:05.071Z,21.57
2023-04-27T10:25:41.456Z,21.70
2023-04-27T10:28:09.004Z,21.87
2023-04-27T10:30:38.804Z,22.00
2023-04-27T10:33:10.993Z,22.13
2023-04-27T10:35:53.431Z,22.25
2023-04-27T10:38:26.890Z,22.40
2023-04-27T10:41:01.879Z,22.53
2023-04-27T10:43:31.708Z,22.65
2023-04-27T10:46:15.760Z,22.66
2023-04-27T10:48:44.064Z,22.74
2023-04-27T10:51:15.484Z,22.75
2023-04-27T10:53:42.517Z,22.84
2023-04-27T10:56:10.945Z,22.86
2023-04-27T10:58:48.422Z,22.91
2023-04-27T11:01:26.992Z,22.92
2023-04-27T11:03:59.544Z,23.01
2023-04-27T11:06:28.779Z,23.11
2023-04-27T11:08:55.766Z,23.18
2023-04-27T11:11:22.825Z,23.19
2023-04-27T11:13:50.336Z,23.15
2023-04-27T11:16:19.288Z,23.13
2023-04-27T11:18:46.213Z,23.07
2023-04-27T11:21:16.871Z,23.08
2023-04-27T11:23:44.034Z,23.16
2023-04-27T11:26:18.534Z,23.15
2023-04-27T11:29:10.101Z,23.13
2023-04-27T11:31:51.558Z,23.20
2023-04-27T11:34:22.633Z,23.31
2023-04-27T11:39:41.109Z,23.27
2023-04-27T11:42:25.063Z,23.17
2023-04-27T11:45:05.904Z,23.16
2023-04-27T11:47:35.176Z,23.20
2023-04-27T11:50:06.332Z,23.25
2023-04-27T11:52:36.434Z,23.35
2023-04-27T11:55:04.595Z,23.47
2023-04-27T11:57:35.849Z,23.61
2023-04-27T12:00:11.870Z,23.77
2023-04-27T12:02:43.985Z,23.94
2023-04-27T12:05:13.128Z,24.12
2023-04-27T12:07:41.249Z,24.26
2023-04-27T12:10:08.963Z,24.39
2023-04-27T12:12:36.134Z,24.52
2023-04-27T12:15:03.300Z,24.65
2023-04-27T12:17:30.261Z,24.75
2023-04-27T12:19:57.176Z,24.90
2023-04-27T12:22:24.032Z,25.01
2023-04-27T12:24:51.271Z,25.09
2023-04-27T12:27:18.259Z,25.15
2023-04-27T12:29:45.125Z,25.18
2023-04-27T12:32:12.017Z,25.18
2023-04-27T12:34:39.443Z,25.18
2023-04-27T12:37:06.593Z,25.16
2023-04-27T12:39:33.372Z,25.10
2023-04-27T12:42:00.164Z,25.02
2023-04-27T12:44:27.109Z,24.96
2023-04-27T12:46:54.116Z,24.85
2023-04-27T12:49:21.190Z,24.77
2023-04-27T12:51:51.485Z,24.68
2023-04-27T12:54:18.475Z,24.54
2023-04-27T12:56:45.459Z,24.42
2023-04-27T12:59:12.271Z,24.35
2023-04-27T13:01:39.136Z,24.31
2023-04-27T13:04:07.064Z,24.29
2023-04-27T13:06:34.245Z,24.30
2023-04-27T13:09:02.638Z,24.26
2023-04-27T13:11:29.640Z,24.23
2023-04-27T13:13:56.463Z,24.19
2023-04-27T13:16:25.516Z,24.17
2023-04-27T13:18:55.366Z,24.16
2023-04-27T13:21:22.641Z,24.14
2023-04-27T13:23:49.654Z,24.14
2023-04-27T13:26:16.940Z,24.11
2023-04-27T13:28:43.927Z,24.10
2023-04-27T13:31:10.901Z,24.10
2023-04-27T13:33:42.957Z,24.06
2023-04-27T13:36:11.397Z,24.04
2023-04-27T13:38:38.592Z,24.01
2023-04-27T13:41:06.629Z,23.97
2023-04-27T13:43:33.689Z,23.91
2023-04-27T13:46:01.757Z,23.83
2023-04-27T13:48:30.234Z,23.76
2023-04-27T13:50:57.732Z,23.69
2023-04-27T13:53:25.766Z,23.58
2023-04-27T13:55:57.959Z,23.48
2023-04-27T13:58:28.906Z,23.45
2023-04-27T14:00:55.860Z,23.45
2023-04-27T14:03:23.080Z,23.48
2023-04-27T14:05:51.402Z,23.51
2023-04-27T14:08:18.929Z,23.55
2023-04-27T14:10:46.105Z,23.57
2023-04-27T14:13:13.339Z,23.57
2023-04-27T14:15:41.182Z,23.60
2023-04-27T14:18:09.769Z,23.61
2023-04-27T14:20:38.631Z,23.66
2023-04-27T14:23:06.154Z,23.71
2023-04-27T14:25:34.300Z,23.74
2023-04-27T14:28:06.225Z,23.71
2023-04-27T14:30:33.942Z,23.76
2023-04-27T14:33:01.352Z,23.75
2023-04-27T14:35:28.356Z,23.74
2023-04-27T14:37:56.938Z,23.78
2023-04-27T14:40:23.846Z,23.86
2023-04-27T14:42:50.686Z,23.93
2023-04-27T14:45:18.810Z,23.94
2023-04-27T14:47:45.764Z,23.95
2023-04-27T14:50:14.836Z,23.98
2023-04-27T14:52:41.725Z,24.01
2023-04-27T14:55:09.348Z,24.01
2023-04-27T14:57:36.761Z,24.00
2023-04-27T15:00:09.736Z,23.97
2023-04-27T15:02:37.991Z,23.92
2023-04-27T15:05:07.073Z,23.92
2023-04-27T15:07:33.928Z,23.91
2023-04-27T15:10:00.703Z,23.90
2023-04-27T15:12:27.734Z,23.85
2023-04-27T15:14:54.650Z,23.81
2023-04-27T15:17:21.610Z,23.78
2023-04-27T15:19:48.489Z,23.77
2023-04-27T15:22:15.429Z,23.73
2023-04-27T15:24:42.197Z,23.74
2023-04-27T15:27:10.087Z,23.76
2023-04-27T15:29:37.417Z,23.73
2023-04-27T15:32:04.564Z,23.71
2023-04-27T15:34:31.783Z,23.68
2023-04-27T15:36:58.595Z,23.63
2023-04-27T15:39:26.870Z,23.59
2023-04-27T15:41:53.738Z,23.62
2023-04-27T15:44:20.697Z,23.66
2023-04-27T15:46:47.556Z,23.72
2023-04-27T15:49:14.588Z,23.74
2023-04-27T15:51:41.587Z,23.76
2023-04-27T15:54:08.428Z,23.79
2023-04-27T15:56:35.246Z,23.83
2023-04-27T15:59:02.033Z,23.85
2023-04-27T16:01:28.882Z,23.87
2023-04-27T16:03:56.579Z,23.91
2023-04-27T16:06:33.225Z,23.90
2023-04-27T16:09:01.298Z,24.13
2023-04-27T16:11:28.124Z,24.41
2023-04-27T16:13:54.983Z,24.69
2023-04-27T16:16:21.985Z,25.06
2023-04-27T16:18:48.856Z,25.51
2023-04-27T16:21:15.814Z,26.06
2023-04-27T16:23:42.592Z,26.63
2023-04-27T16:26:09.413Z,27.14
2023-04-27T16:28:36.306Z,27.61
2023-04-27T16:31:03.202Z,28.08
2023-04-27T16:33:30.033Z,28.62
2023-04-27T16:35:57.252Z,29.20
2023-04-27T16:38:24.058Z,29.71
2023-04-27T16:40:52.552Z,30.17
2023-04-27T16:43:19.369Z,30.64
2023-04-27T16:45:46.351Z,31.07
2023-04-27T16:48:13.150Z,31.47
2023-04-27T16:50:40.881Z,31.83
2023-04-27T16:53:19.528Z,32.17
2023-04-27T16:55:46.446Z,32.54
2023-04-27T16:58:13.331Z,32.71
2023-04-27T17:00:40.788Z,32.84
2023-04-27T17:03:07.743Z,32.91
2023-04-27T17:05:34.703Z,32.87
2023-04-27T17:08:03.611Z,32.72
2023-04-27T17:10:32.151Z,32.62
2023-04-27T17:12:59.241Z,32.39
2023-04-27T17:15:28.424Z,32.12
2023-04-27T17:17:55.463Z,31.85
2023-04-27T17:20:22.497Z,31.55
2023-04-27T17:22:49.268Z,31.20
2023-04-27T17:25:16.655Z,30.84
2023-04-27T17:27:43.498Z,30.43
2023-04-27T17:30:10.932Z,29.99
2023-04-27T17:32:37.957Z,29.52
2023-04-27T17:35:05.709Z,29.05
2023-04-27T17:37:32.632Z,28.59
2023-04-27T17:39:59.569Z,28.16
2023-04-27T17:42:26.426Z,27.74
2023-04-27T17:44:53.302Z,27.36
2023-04-27T17:47:22.286Z,26.99
2023-04-27T17:49:49.128Z,26.64
2023-04-27T17:52:16.113Z,26.32
2023-04-27T17:54:43.245Z,25.99
2023-04-27T17:57:10.093Z,25.68
2023-04-27T17:59:37.050Z,25.39
2023-04-27T18:02:03.905Z,25.15
2023-04-27T18:04:30.864Z,24.89
2023-04-27T18:06:57.790Z,24.67
2023-04-27T18:09:26.245Z,24.46
2023-04-27T18:11:53.153Z,24.26
2023-04-27T18:14:20.989Z,24.08
2023-04-27T18:16:47.906Z,23.89
2023-04-27T18:19:14.946Z,23.67
2023-04-27T18:21:41.947Z,23.46
2023-04-27T18:24:08.987Z,23.25
2023-04-27T18:26:38.826Z,23.07
2023-04-27T18:29:05.638Z,22.87
2023-04-27T18:31:32.548Z,22.70
2023-04-27T18:33:59.444Z,22.51
2023-04-27T18:36:27.527Z,22.33
2023-04-27T18:38:55.361Z,22.14
2023-04-27T18:41:22.294Z,22.00
2023-04-27T18:43:49.078Z,21.83
2023-04-27T18:46:15.925Z,21.66
2023-04-27T18:48:42.751Z,21.46
2023-04-27T18:51:09.546Z,21.29
2023-04-27T18:53:36.608Z,21.14
2023-04-27T18:56:03.702Z,20.98
2023-04-27T18:58:30.512Z,20.80
2023-04-27T19:00:57.354Z,20.67
2023-04-27T19:03:25.661Z,20.52
2023-04-27T19:05:52.777Z,20.41
2023-04-27T19:08:19.575Z,20.29
2023-04-27T19:10:46.366Z,20.18
2023-04-27T19:13:13.285Z,20.08
2023-04-27T19:15:40.370Z,19.99
2023-04-27T19:18:11.248Z,19.91
2023-04-27T19:20:39.222Z,19.81
2023-04-27T19:23:07.763Z,19.73
2023-04-27T19:25:35.185Z,19.63
2023-04-27T19:28:02.017Z,19.55
2023-04-27T19:30:28.943Z,19.46
2023-04-27T19:32:55.772Z,19.37
2023-04-27T19:35:23.722Z,19.29
2023-04-27T19:37:50.991Z,19.22
2023-04-27T19:40:18.441Z,19.17
2023-04-27T19:42:45.480Z,19.09
2023-04-27T19:45:12.508Z,19.04
2023-04-27T19:47:39.426Z,18.96
2023-04-27T19:50:06.923Z,18.88
2023-04-27T19:52:33.784Z,18.81
2023-04-27T19:55:00.828Z,18.74
2023-04-27T19:57:27.697Z,18.69
2023-04-27T19:59:54.552Z,18.62
2023-04-27T20:02:21.528Z,18.56
2023-04-27T20:04:48.999Z,18.50
2023-04-27T20:07:16.000Z,18.45
2023-04-27T20:09:42.988Z,18.39
2023-04-27T20:12:23.741Z,18.34
2023-04-27T20:14:56.608Z,18.26
2023-04-27T20:17:25.926Z,18.20
2023-04-27T20:19:57.043Z,18.14
2023-04-27T20:22:23.951Z,18.08
2023-04-27T20:24:50.912Z,18.04
2023-04-27T20:27:17.766Z,18.00
2023-04-27T20:29:46.518Z,17.96
2023-04-27T20:32:13.523Z,17.91
2023-04-27T20:34:40.406Z,17.87
2023-04-27T20:37:07.411Z,17.82
2023-04-27T20:39:34.941Z,17.77
2023-04-27T20:42:01.881Z,17.73
2023-04-27T20:44:28.645Z,17.68
2023-04-27T20:46:55.552Z,17.62
2023-04-27T20:49:32.070Z,17.57
2023-04-27T20:52:01.625Z,17.52
2023-04-27T20:54:30.881Z,17.48
2023-04-27T20:56:57.763Z,17.42
2023-04-27T20:59:24.640Z,17.39
2023-04-27T21:01:51.477Z,17.35
2023-04-27T21:04:18.549Z,17.31
2023-04-27T21:06:45.810Z,17.28
2023-04-27T21:09:12.654Z,17.23
2023-04-27T21:11:39.487Z,17.21
2023-04-27T21:14:06.286Z,17.17
2023-04-27T21:16:33.115Z,17.12
2023-04-27T21:18:59.939Z,17.09
2023-04-27T21:21:26.928Z,17.06
2023-04-27T21:24:04.106Z,17.03
2023-04-27T21:26:34.484Z,17.00
2023-04-27T21:29:01.435Z,16.98
2023-04-27T21:31:28.332Z,16.96
2023-04-27T21:33:55.200Z,16.94
2023-04-27T21:36:21.979Z,16.92
2023-04-27T21:38:49.014Z,16.89
2023-04-27T21:41:17.566Z,16.86
2023-04-27T21:43:44.953Z,16.84
2023-04-27T21:46:11.821Z,16.80
2023-04-27T21:48:38.666Z,16.79
2023-04-27T21:51:05.713Z,16.77
2023-04-27T21:53:32.527Z,16.76
2023-04-27T21:56:00.130Z,16.73
2023-04-27T21:58:26.992Z,16.71
2023-04-27T22:00:53.887Z,16.69
2023-04-27T22:03:21.589Z,16.67
2023-04-27T22:05:52.727Z,16.64
2023-04-27T22:08:19.726Z,16.63
2023-04-27T22:10:47.044Z,16.59
2023-04-27T22:15:43.698Z,16.53
2023-04-27T22:18:10.530Z,16.51
2023-04-27T22:20:37.338Z,16.47
2023-04-27T22:23:04.215Z,16.44
2023-04-27T22:25:31.503Z,16.40
2023-04-27T22:27:58.522Z,16.36
2023-04-27T22:30:25.603Z,16.34
2023-04-27T22:32:52.490Z,16.30
2023-04-27T22:35:26.496Z,16.26
2023-04-27T22:37:59.085Z,16.21
2023-04-27T22:40:26.289Z,16.21
2023-04-27T22:42:54.871Z,16.18
2023-04-27T22:45:22.885Z,16.14
2023-04-27T22:47:49.988Z,16.14
2023-04-27T22:50:16.919Z,16.10
2023-04-27T22:52:43.785Z,16.05
2023-04-27T22:55:12.381Z,16.03
2023-04-27T22:57:40.085Z,16.01
2023-04-27T23:00:11.458Z,15.99
2023-04-27T23:02:42.620Z,15.93
2023-04-27T23:05:10.783Z,15.90
2023-04-27T23:07:40.822Z,15.88
2023-04-27T23:10:08.591Z,15.87
2023-04-27T23:12:35.479Z,15.88
2023-04-27T23:15:02.324Z,15.86
2023-04-27T23:17:31.883Z,15.88
2023-04-27T23:20:00.846Z,15.86
2023-04-27T23:22:28.358Z,15.88
2023-04-27T23:24:55.342Z,15.89
2023-04-27T23:27:23.547Z,15.91
2023-04-27T23:29:50.647Z,15.89
2023-04-27T23:32:17.783Z,15.91
2023-04-27T23:34:44.646Z,15.94
2023-04-27T23:37:11.914Z,15.94
2023-04-27T23:39:38.741Z,15.95
2023-04-27T23:42:05.779Z,15.95
2023-04-27T23:44:32.618Z,15.97
2023-04-27T23:46:59.451Z,15.97
2023-04-27T23:49:26.268Z,15.98
2023-04-27T23:51:53.225Z,15.98
2023-04-27T23:54:20.077Z,15.97
2023-04-27T23:56:47.153Z,15.97
2023-04-27T23:59:15.030Z,15.97
